sensor_id;sensor_type;location;lat;lon;timestamp;pressure;altitude;pressure_sealevel;temperature;humidity
22862;BME280;11598;50.652;6.172;2023-02-03T00:08:27;97480.78;;;4.81;100.00
22862;BME280;11598;50.652;6.172;2023-02-03T00:18:27;97455.94;;;4.80;100.00
22862;BME280;11598;50.652;6.172;2023-02-03T00:28:28;97412.09;;;4.81;100.00
22862;BME280;11598;50.652;6.172;2023-02-03T00:38:30;97401.88;;;4.80;100.00
22862;BME280;11598;50.652;6.172;2023-02-03T00:48:31;97406.16;;;4.79;100.00
22862;BME280;11598;50.652;6.172;2023-02-03T00:58:31;97381.31;;;4.78;100.00
22862;BME280;11598;50.652;6.172;2023-02-03T01:08:31;97395.03;;;4.79;100.00
22862;BME280;11598;50.652;6.172;2023-02-03T01:18:32;97374.56;;;4.76;100.00
22862;BME280;11598;50.652;6.172;2023-02-03T01:28:32;97382.31;;;4.74;100.00
22862;BME280;11598;50.652;6.172;2023-02-03T01:38:33;97418.34;;;4.74;100.00
22862;BME280;11598;50.652;6.172;2023-02-03T01:48:33;97431.19;;;4.76;100.00
22862;BME280;11598;50.652;6.172;2023-02-03T01:58:37;97435.38;;;4.78;100.00
22862;BME280;11598;50.652;6.172;2023-02-03T02:08:41;97462.09;;;4.76;100.00
22862;BME280;11598;50.652;6.172;2023-02-03T02:40:10;97425.41;;;4.69;100.00
22862;BME280;11598;50.652;6.172;2023-02-03T02:50:23;97417.69;;;4.69;100.00
22862;BME280;11598;50.652;6.172;2023-02-03T03:00:29;97407.44;;;4.68;100.00
22862;BME280;11598;50.652;6.172;2023-02-03T03:10:31;97416.03;;;4.68;100.00
22862;BME280;11598;50.652;6.172;2023-02-03T03:20:32;97413.44;;;4.68;100.00
22862;BME280;11598;50.652;6.172;2023-02-03T03:30:36;97424.59;;;4.69;100.00
22862;BME280;11598;50.652;6.172;2023-02-03T03:40:39;97403.88;;;4.72;100.00
22862;BME280;11598;50.652;6.172;2023-02-03T03:50:44;97426.91;;;4.75;100.00
22862;BME280;11598;50.652;6.172;2023-02-03T04:00:46;97428.63;;;4.76;100.00
22862;BME280;11598;50.652;6.172;2023-02-03T04:10:48;97386.50;;;4.77;100.00
22862;BME280;11598;50.652;6.172;2023-02-03T04:20:48;97405.50;;;4.74;100.00
22862;BME280;11598;50.652;6.172;2023-02-03T04:30:48;97392.69;;;4.73;100.00
22862;BME280;11598;50.652;6.172;2023-02-03T04:40:49;97364.41;;;4.71;100.00
22862;BME280;11598;50.652;6.172;2023-02-03T04:50:50;97384.06;;;4.74;100.00
22862;BME280;11598;50.652;6.172;2023-02-03T05:00:50;97410.63;;;4.74;100.00
22862;BME280;11598;50.652;6.172;2023-02-03T05:10:51;97426.03;;;4.76;100.00
22862;BME280;11598;50.652;6.172;2023-02-03T05:20:51;97427.78;;;4.75;100.00
22862;BME280;11598;50.652;6.172;2023-02-03T05:30:51;97403.81;;;4.73;100.00
22862;BME280;11598;50.652;6.172;2023-02-03T05:40:52;97412.34;;;4.75;100.00
22862;BME280;11598;50.652;6.172;2023-02-03T05:51:11;97407.13;;;4.77;100.00
22862;BME280;11598;50.652;6.172;2023-02-03T06:01:11;97401.13;;;4.76;100.00
22862;BME280;11598;50.652;6.172;2023-02-03T06:11:12;97431.19;;;4.76;100.00
22862;BME280;11598;50.652;6.172;2023-02-03T06:21:13;97450.94;;;4.75;100.00
22862;BME280;11598;50.652;6.172;2023-02-03T06:31:13;97451.00;;;4.74;100.00
22862;BME280;11598;50.652;6.172;2023-02-03T06:41:13;97445.81;;;4.75;100.00
22862;BME280;11598;50.652;6.172;2023-02-03T06:51:14;97443.22;;;4.75;100.00
22862;BME280;11598;50.652;6.172;2023-02-03T07:01:14;97426.91;;;4.75;100.00
22862;BME280;11598;50.652;6.172;2023-02-03T07:11:15;97422.56;;;4.77;100.00
22862;BME280;11598;50.652;6.172;2023-02-03T07:21:16;97434.59;;;4.76;100.00
22862;BME280;11598;50.652;6.172;2023-02-03T07:31:17;97409.63;;;4.78;100.00
22862;BME280;11598;50.652;6.172;2023-02-03T07:41:17;97411.22;;;4.82;100.00
22862;BME280;11598;50.652;6.172;2023-02-03T07:51:18;97445.25;;;4.91;100.00
22862;BME280;11598;50.652;6.172;2023-02-03T08:01:18;97441.63;;;4.96;100.00
22862;BME280;11598;50.652;6.172;2023-02-03T08:11:18;97449.28;;;4.98;100.00
22862;BME280;11598;50.652;6.172;2023-02-03T08:21:19;97489.44;;;5.03;100.00
22862;BME280;11598;50.652;6.172;2023-02-03T08:31:19;97493.69;;;5.04;100.00
22862;BME280;11598;50.652;6.172;2023-02-03T08:41:19;97494.50;;;5.05;100.00
22862;BME280;11598;50.652;6.172;2023-02-03T08:51:20;97502.19;;;5.06;100.00
22862;BME280;11598;50.652;6.172;2023-02-03T09:01:20;97495.97;;;5.12;100.00
22862;BME280;11598;50.652;6.172;2023-02-03T09:11:21;97507.03;;;5.16;100.00
22862;BME280;11598;50.652;6.172;2023-02-03T09:21:22;97513.75;;;5.20;100.00
22862;BME280;11598;50.652;6.172;2023-02-03T09:31:23;97509.31;;;5.23;100.00
22862;BME280;11598;50.652;6.172;2023-02-03T10:02:41;97490.91;;;5.34;100.00
22862;BME280;11598;50.652;6.172;2023-02-03T10:12:54;97505.63;;;5.30;100.00
22862;BME280;11598;50.652;6.172;2023-02-03T10:23:00;97510.94;;;5.26;100.00
22862;BME280;11598;50.652;6.172;2023-02-03T10:33:12;97522.88;;;5.28;100.00
22862;BME280;11598;50.652;6.172;2023-02-03T10:43:13;97546.06;;;5.28;100.00
22862;BME280;11598;50.652;6.172;2023-02-03T10:53:35;97553.78;;;5.28;100.00
22862;BME280;11598;50.652;6.172;2023-02-03T11:03:37;97563.25;;;5.28;100.00
22862;BME280;11598;50.652;6.172;2023-02-03T11:13:37;97537.22;;;5.36;100.00
22862;BME280;11598;50.652;6.172;2023-02-03T11:23:48;97513.84;;;5.40;100.00
22862;BME280;11598;50.652;6.172;2023-02-03T11:33:56;97497.16;;;5.50;100.00
22862;BME280;11598;50.652;6.172;2023-02-03T11:43:57;97510.75;;;5.54;100.00
22862;BME280;11598;50.652;6.172;2023-02-03T11:55:01;97477.25;;;5.54;100.00
22862;BME280;11598;50.652;6.172;2023-02-03T12:26:07;97528.69;;;5.57;100.00
22862;BME280;11598;50.652;6.172;2023-02-03T12:36:11;97531.38;;;5.54;100.00
22862;BME280;11598;50.652;6.172;2023-02-03T12:46:25;97517.53;;;5.57;100.00
22862;BME280;11598;50.652;6.172;2023-02-03T12:56:32;97514.88;;;5.60;100.00
22862;BME280;11598;50.652;6.172;2023-02-03T13:06:47;97495.25;;;5.56;100.00
22862;BME280;11598;50.652;6.172;2023-02-03T13:17:14;97490.16;;;5.54;100.00
22862;BME280;11598;50.652;6.172;2023-02-03T13:27:36;97503.03;;;5.54;100.00
22862;BME280;11598;50.652;6.172;2023-02-03T13:37:56;97494.34;;;5.57;100.00
22862;BME280;11598;50.652;6.172;2023-02-03T13:48:20;97514.91;;;5.58;100.00
22862;BME280;11598;50.652;6.172;2023-02-03T13:58:28;97511.44;;;5.59;100.00
22862;BME280;11598;50.652;6.172;2023-02-03T14:18:32;97516.59;;;5.59;100.00
22862;BME280;11598;50.652;6.172;2023-02-03T14:28:41;97522.47;;;5.63;100.00
22862;BME280;11598;50.652;6.172;2023-02-03T14:38:42;97515.41;;;5.68;100.00
22862;BME280;11598;50.652;6.172;2023-02-03T14:49:05;97535.97;;;5.69;100.00
22862;BME280;11598;50.652;6.172;2023-02-03T14:59:10;97555.69;;;5.70;100.00
22862;BME280;11598;50.652;6.172;2023-02-03T15:09:28;97565.19;;;5.70;100.00
22862;BME280;11598;50.652;6.172;2023-02-03T15:19:33;97559.13;;;5.71;100.00
22862;BME280;11598;50.652;6.172;2023-02-03T15:29:33;97568.59;;;5.70;100.00
22862;BME280;11598;50.652;6.172;2023-02-03T15:39:44;97568.63;;;5.69;100.00
22862;BME280;11598;50.652;6.172;2023-02-03T15:49:58;97570.34;;;5.70;100.00
22862;BME280;11598;50.652;6.172;2023-02-03T16:00:22;97579.81;;;5.69;100.00
22862;BME280;11598;50.652;6.172;2023-02-03T16:10:29;97596.06;;;5.71;100.00
22862;BME280;11598;50.652;6.172;2023-02-03T16:20:30;97606.44;;;5.70;100.00
22862;BME280;11598;50.652;6.172;2023-02-03T16:30:32;97621.16;;;5.66;100.00
22862;BME280;11598;50.652;6.172;2023-02-03T16:40:51;97634.84;;;5.68;100.00
22862;BME280;11598;50.652;6.172;2023-02-03T16:51:13;97650.44;;;5.65;100.00
22862;BME280;11598;50.652;6.172;2023-02-03T17:01:15;97655.59;;;5.65;100.00
22862;BME280;11598;50.652;6.172;2023-02-03T17:11:18;97663.28;;;5.67;100.00
22862;BME280;11598;50.652;6.172;2023-02-03T17:21:23;97674.47;;;5.66;100.00
22862;BME280;11598;50.652;6.172;2023-02-03T17:31:24;97671.94;;;5.64;100.00
22862;BME280;11598;50.652;6.172;2023-02-03T17:41:25;97668.53;;;5.64;100.00
22862;BME280;11598;50.652;6.172;2023-02-03T17:51:27;97677.03;;;5.66;100.00
22862;BME280;11598;50.652;6.172;2023-02-03T18:01:30;97678.78;;;5.65;100.00
22862;BME280;11598;50.652;6.172;2023-02-03T18:11:32;97682.19;;;5.66;100.00
22862;BME280;11598;50.652;6.172;2023-02-03T18:21:36;97702.72;;;5.69;100.00
22862;BME280;11598;50.652;6.172;2023-02-03T18:31:37;97715.72;;;5.66;100.00
22862;BME280;11598;50.652;6.172;2023-02-03T18:41:38;97729.56;;;5.63;100.00
22862;BME280;11598;50.652;6.172;2023-02-03T18:51:39;97725.19;;;5.65;100.00
22862;BME280;11598;50.652;6.172;2023-02-03T19:01:39;97737.25;;;5.65;100.00
22862;BME280;11598;50.652;6.172;2023-02-03T19:11:39;97749.22;;;5.66;100.00
22862;BME280;11598;50.652;6.172;2023-02-03T19:21:40;97748.34;;;5.67;100.00
22862;BME280;11598;50.652;6.172;2023-02-03T19:31:40;97768.88;;;5.70;100.00
22862;BME280;11598;50.652;6.172;2023-02-03T19:41:40;97776.66;;;5.68;100.00
22862;BME280;11598;50.652;6.172;2023-02-03T19:51:42;97785.22;;;5.69;100.00
22862;BME280;11598;50.652;6.172;2023-02-03T20:01:42;97794.69;;;5.68;100.00
22862;BME280;11598;50.652;6.172;2023-02-03T20:11:43;97795.66;;;5.66;100.00
22862;BME280;11598;50.652;6.172;2023-02-03T20:21:44;97794.78;;;5.67;100.00
22862;BME280;11598;50.652;6.172;2023-02-03T20:31:46;97799.06;;;5.66;100.00
22862;BME280;11598;50.652;6.172;2023-02-03T20:41:46;97791.25;;;5.69;100.00
22862;BME280;11598;50.652;6.172;2023-02-03T20:51:47;97802.41;;;5.70;100.00
22862;BME280;11598;50.652;6.172;2023-02-03T21:01:47;97818.75;;;5.69;100.00
22862;BME280;11598;50.652;6.172;2023-02-03T21:11:50;97835.91;;;5.70;100.00
22862;BME280;11598;50.652;6.172;2023-02-03T21:21:51;97832.38;;;5.72;100.00
22862;BME280;11598;50.652;6.172;2023-02-03T21:31:53;97822.03;;;5.74;100.00
22862;BME280;11598;50.652;6.172;2023-02-03T21:41:54;97817.75;;;5.73;100.00
22862;BME280;11598;50.652;6.172;2023-02-03T21:51:54;97815.13;;;5.75;100.00
22862;BME280;11598;50.652;6.172;2023-02-03T22:01:55;97822.88;;;5.75;100.00
22862;BME280;11598;50.652;6.172;2023-02-03T22:11:59;97840.84;;;5.76;100.00
22862;BME280;11598;50.652;6.172;2023-02-03T22:21:59;97847.75;;;5.76;100.00
22862;BME280;11598;50.652;6.172;2023-02-03T22:31:59;97861.44;;;5.78;100.00
22862;BME280;11598;50.652;6.172;2023-02-03T22:42:00;97890.72;;;5.77;100.00
22862;BME280;11598;50.652;6.172;2023-02-03T22:52:00;97898.34;;;5.53;100.00
22862;BME280;11598;50.652;6.172;2023-02-03T23:02:00;97915.59;;;5.21;100.00
22862;BME280;11598;50.652;6.172;2023-02-03T23:12:01;97915.69;;;4.88;100.00
22862;BME280;11598;50.652;6.172;2023-02-03T23:22:01;97932.94;;;4.54;100.00
22862;BME280;11598;50.652;6.172;2023-02-03T23:32:05;97950.16;;;4.19;100.00
22862;BME280;11598;50.652;6.172;2023-02-03T23:42:06;97955.94;;;3.93;100.00
22862;BME280;11598;50.652;6.172;2023-02-03T23:52:06;97962.16;;;3.83;100.00
